createdAt,value
2019-06-08T00:00:57.717Z,16.39
2019-06-08T00:01:57.684Z,16.39
2019-06-08T00:02:57.688Z,16.41
2019-06-08T00:03:57.652Z,16.41
2019-06-08T00:04:57.632Z,16.41
2019-06-08T00:05:57.620Z,16.43
2019-06-08T00:06:57.599Z,16.43
2019-06-08T00:07:57.601Z,16.46
2019-06-08T00:08:57.575Z,16.56
2019-06-08T00:09:57.550Z,16.70
2019-06-08T00:10:57.538Z,16.58
2019-06-08T00:11:57.525Z,16.64
2019-06-08T00:12:57.515Z,16.61
2019-06-08T00:13:57.490Z,16.53
2019-06-08T00:14:57.472Z,16.46
2019-06-08T00:15:57.450Z,16.41
2019-06-08T00:16:57.431Z,16.48
2019-06-08T00:17:59.330Z,16.52
2019-06-08T00:18:57.398Z,16.50
2019-06-08T00:19:57.382Z,16.52
2019-06-08T00:20:57.364Z,16.53
2019-06-08T00:21:57.347Z,16.43
2019-06-08T00:22:57.332Z,16.43
2019-06-08T00:23:57.329Z,16.45
2019-06-08T00:24:57.296Z,16.41
2019-06-08T00:25:57.289Z,16.41
2019-06-08T00:26:57.263Z,16.39
2019-06-08T00:27:57.259Z,16.31
2019-06-08T00:28:57.242Z,16.24
2019-06-08T00:29:57.213Z,16.35
2019-06-08T00:30:57.196Z,16.41
2019-06-08T00:31:57.180Z,16.35
2019-06-08T00:32:57.186Z,16.38
2019-06-08T00:33:57.158Z,16.39
2019-06-08T00:34:57.146Z,16.46
2019-06-08T00:35:57.113Z,16.31
2019-06-08T00:36:57.093Z,16.35
2019-06-08T00:37:57.091Z,16.50
2019-06-08T00:38:57.083Z,16.49
2019-06-08T00:39:57.042Z,16.57
2019-06-08T00:40:57.029Z,16.61
2019-06-08T00:41:57.024Z,16.60
2019-06-08T00:42:56.994Z,16.52
2019-06-08T00:43:56.992Z,16.66
2019-06-08T00:44:56.978Z,16.66
2019-06-08T00:45:56.941Z,16.66
2019-06-08T00:46:56.926Z,16.70
2019-06-08T00:47:56.909Z,16.61
2019-06-08T00:48:56.927Z,16.61
2019-06-08T00:49:56.877Z,16.56
2019-06-08T00:50:56.861Z,16.60
2019-06-08T00:51:56.842Z,16.63
2019-06-08T00:52:56.825Z,16.56
2019-06-08T00:53:56.805Z,16.66
2019-06-08T00:54:56.804Z,16.57
2019-06-08T00:55:56.775Z,16.60
2019-06-08T00:56:56.754Z,16.61
2019-06-08T00:57:56.755Z,16.63
2019-06-08T00:58:56.724Z,16.58
2019-06-08T00:59:56.723Z,16.58
2019-06-08T01:00:56.690Z,16.56
2019-06-08T01:01:56.679Z,16.57
2019-06-08T01:02:56.657Z,16.41
2019-06-08T01:03:56.645Z,16.53
2019-06-08T01:04:56.643Z,16.45
2019-06-08T01:05:56.607Z,16.49
2019-06-08T01:06:56.589Z,16.53
2019-06-08T01:07:56.569Z,16.50
2019-06-08T01:08:56.553Z,16.46
2019-06-08T01:09:56.550Z,16.49
2019-06-08T01:10:56.524Z,16.48
2019-06-08T01:11:56.511Z,16.48
2019-06-08T01:12:56.487Z,16.48
2019-06-08T01:13:56.469Z,16.39
2019-06-08T01:14:56.468Z,16.38
2019-06-08T01:15:56.437Z,16.33
2019-06-08T01:16:56.432Z,16.28
2019-06-08T01:18:02.549Z,16.30
2019-06-08T01:18:56.383Z,16.27
2019-06-08T01:19:56.387Z,16.23
2019-06-08T05:18:41.258Z,15.49
2019-06-08T05:19:41.137Z,15.46
2019-06-08T05:20:43.117Z,15.51
2019-06-08T05:21:41.542Z,15.60
2019-06-08T05:22:41.490Z,15.57
2019-06-08T05:23:41.328Z,15.51
2019-06-08T05:24:41.363Z,15.62
2019-06-08T05:25:41.209Z,15.76
2019-06-08T05:26:41.718Z,15.86
2019-06-08T05:27:41.189Z,16.04
2019-06-08T05:28:41.273Z,16.11
2019-06-08T05:29:41.271Z,16.00
2019-06-08T05:30:41.268Z,16.07
2019-06-08T05:31:41.527Z,16.07
2019-06-08T05:32:41.365Z,16.11
2019-06-08T05:33:41.295Z,16.14
2019-06-08T05:34:41.400Z,16.08
2019-06-08T05:35:41.362Z,15.94
2019-06-08T05:36:41.377Z,15.82
2019-06-08T05:37:41.415Z,15.94
2019-06-08T05:38:41.530Z,16.12
2019-06-08T05:39:41.413Z,16.14
2019-06-08T05:40:41.484Z,16.05
2019-06-08T05:41:41.370Z,16.20
2019-06-08T05:42:42.129Z,16.42
2019-06-08T05:43:41.531Z,16.05
2019-06-08T05:44:41.531Z,16.07
2019-06-08T05:45:41.442Z,16.09
2019-06-08T05:46:41.581Z,16.17
2019-06-08T05:47:41.678Z,16.04
2019-06-08T05:48:40.141Z,16.01
2019-06-08T05:49:40.119Z,16.09
2019-06-08T05:50:54.941Z,16.24
2019-06-08T05:51:40.101Z,16.20
2019-06-08T05:52:40.069Z,16.15
2019-06-08T05:53:40.052Z,16.11
2019-06-08T06:04:30.067Z,16.20
2019-06-08T06:05:30.038Z,16.25
2019-06-08T06:06:30.027Z,16.17
2019-06-08T06:07:29.998Z,16.00
2019-06-08T06:08:29.977Z,16.14
2019-06-08T06:09:29.961Z,16.31
2019-06-08T06:10:29.940Z,16.24
2019-06-08T06:11:29.941Z,16.43
2019-06-08T06:12:29.910Z,16.20
2019-06-08T06:21:41.059Z,17.71
2019-06-08T06:22:42.034Z,17.78
2019-06-08T06:23:41.190Z,18.02
2019-06-08T06:24:41.770Z,17.52
2019-06-08T06:25:41.425Z,17.70
2019-06-08T06:26:41.301Z,17.58
2019-06-08T06:27:41.354Z,17.71
2019-06-08T06:28:41.350Z,17.87
2019-06-08T06:29:41.380Z,18.27
2019-06-08T06:30:41.523Z,18.17
2019-06-08T06:31:41.567Z,18.32
2019-06-08T06:32:41.772Z,17.90
2019-06-08T06:33:41.967Z,18.29
2019-06-08T06:34:41.986Z,18.20
2019-06-08T06:35:41.652Z,18.76
2019-06-08T06:36:41.693Z,18.92
2019-06-08T06:37:41.815Z,18.32
2019-06-08T06:38:41.903Z,17.43
2019-06-08T06:39:41.934Z,17.08
2019-06-08T06:40:41.896Z,17.59
2019-06-08T06:41:41.860Z,17.44
2019-06-08T06:42:42.050Z,17.48
2019-06-08T06:43:42.120Z,17.71
2019-06-08T06:44:41.950Z,17.62
2019-06-08T06:45:41.755Z,17.28
2019-06-08T06:53:27.359Z,16.86
2019-06-08T06:54:27.313Z,16.96
2019-06-08T06:55:27.304Z,16.57
2019-06-08T06:56:27.292Z,16.48
2019-06-08T06:57:27.260Z,16.79
2019-06-08T06:58:27.248Z,17.43
2019-06-08T06:59:27.228Z,16.94
2019-06-08T07:00:27.210Z,16.70
2019-06-08T07:01:30.012Z,16.64
2019-06-08T07:02:27.177Z,16.64
2019-06-08T07:03:27.161Z,16.43
2019-06-08T07:04:27.144Z,16.45
2019-06-08T07:05:27.132Z,16.34
2019-06-08T07:06:27.126Z,16.14
2019-06-08T07:07:27.098Z,16.24
2019-06-08T07:08:27.081Z,16.25
2019-06-08T07:09:27.065Z,16.11
2019-06-08T07:10:27.048Z,16.28
2019-06-08T07:14:20.426Z,17.59
2019-06-08T07:15:20.387Z,17.89
2019-06-08T07:16:20.383Z,17.84
2019-06-08T07:17:20.354Z,18.07
2019-06-08T07:18:20.336Z,18.81
2019-06-08T07:19:20.339Z,18.92
2019-06-08T07:20:20.306Z,18.45
2019-06-08T07:21:20.302Z,18.95
2019-06-08T07:22:20.272Z,19.54
2019-06-08T07:23:20.257Z,18.85
2019-06-08T07:24:20.244Z,18.58
2019-06-08T07:25:20.226Z,19.31
2019-06-08T07:26:20.222Z,18.87
2019-06-08T07:27:20.194Z,18.91
2019-06-08T07:28:20.190Z,18.75
2019-06-08T07:49:40.748Z,17.38
2019-06-08T07:50:40.718Z,17.40
2019-06-08T07:51:40.700Z,17.49
2019-06-08T07:52:40.698Z,17.62
2019-06-08T07:53:40.665Z,17.31
2019-06-08T07:54:40.644Z,16.98
2019-06-08T07:55:40.632Z,17.03
2019-06-08T07:56:40.613Z,17.11
2019-06-08T07:57:40.630Z,17.16
2019-06-08T08:09:18.768Z,17.40
2019-06-08T08:10:18.746Z,17.43
2019-06-08T08:11:18.715Z,17.52
2019-06-08T08:12:18.716Z,17.77
2019-06-08T08:13:18.687Z,17.97
2019-06-08T08:14:18.670Z,18.05
2019-06-08T08:15:18.731Z,18.27
2019-06-08T08:16:18.632Z,18.18
2019-06-08T08:17:18.625Z,18.10
2019-06-08T08:18:18.597Z,17.95
2019-06-08T08:19:18.579Z,17.92
2019-06-08T08:20:18.563Z,18.10
2019-06-08T08:21:23.168Z,18.08
2019-06-08T08:22:24.983Z,17.93
2019-06-08T08:23:18.530Z,17.66
2019-06-08T08:24:18.501Z,17.66
2019-06-08T08:25:18.486Z,17.75
2019-06-08T08:26:18.469Z,17.71
2019-06-08T08:34:28.370Z,18.18
2019-06-08T08:35:28.078Z,18.32
2019-06-08T08:36:29.405Z,18.18
2019-06-08T08:37:28.138Z,18.47
2019-06-08T08:38:27.616Z,18.14
2019-06-08T08:39:27.663Z,18.00
2019-06-08T08:40:28.211Z,17.95
2019-06-08T08:41:27.982Z,17.96
2019-06-08T08:42:30.052Z,17.51
2019-06-08T08:43:27.982Z,17.64
2019-06-08T08:44:28.340Z,17.70
2019-06-08T08:45:27.662Z,17.75
2019-06-08T08:46:28.617Z,17.78
2019-06-08T08:47:27.779Z,17.84
2019-06-08T08:48:29.430Z,17.99
2019-06-08T08:49:28.082Z,17.66
2019-06-08T08:50:28.311Z,17.62
2019-06-08T08:51:27.987Z,17.51
2019-06-08T08:52:36.951Z,17.63
2019-06-08T08:53:27.965Z,17.58
2019-06-08T08:54:29.597Z,17.58
2019-06-08T08:55:27.939Z,17.62
2019-06-08T08:56:27.965Z,17.75
2019-06-08T08:57:28.852Z,17.96
2019-06-08T08:58:28.028Z,18.21
2019-06-08T08:59:28.061Z,18.44
2019-06-08T09:00:28.088Z,18.44
2019-06-08T09:01:28.815Z,18.54
2019-06-08T09:02:27.721Z,18.81
2019-06-08T09:03:33.070Z,18.87
2019-06-08T09:04:27.730Z,18.98
2019-06-08T09:05:28.106Z,19.16
2019-06-08T09:06:27.965Z,19.46
2019-06-08T09:07:27.579Z,19.62
2019-06-08T09:08:29.508Z,19.81
2019-06-08T09:09:28.867Z,19.08
2019-06-08T09:10:28.070Z,19.25
2019-06-08T09:11:28.919Z,19.48
2019-06-08T09:12:27.691Z,19.19
2019-06-08T09:13:28.137Z,18.63
2019-06-08T09:14:28.101Z,18.12
2019-06-08T09:15:28.765Z,17.82
2019-06-08T09:16:28.796Z,17.99
2019-06-08T09:17:28.017Z,17.97
2019-06-08T09:18:28.683Z,18.07
2019-06-08T09:19:28.067Z,17.81
2019-06-08T09:20:28.582Z,17.52
2019-06-08T09:21:28.083Z,17.49
2019-06-08T09:22:28.185Z,17.64
2019-06-08T09:23:27.995Z,17.54
2019-06-08T09:24:28.633Z,17.41
2019-06-08T09:25:28.059Z,17.46
2019-06-08T09:26:28.899Z,17.59
2019-06-08T09:27:28.059Z,17.68
2019-06-08T09:28:28.550Z,17.56
2019-06-08T09:29:28.894Z,17.64
2019-06-08T09:30:27.498Z,17.79
2019-06-08T09:31:28.183Z,17.89
2019-06-08T09:32:28.206Z,17.96
2019-06-08T09:33:28.726Z,17.96
2019-06-08T09:34:28.290Z,18.00
2019-06-08T09:35:27.990Z,17.72
2019-06-08T09:36:28.687Z,17.99
2019-06-08T09:37:28.715Z,18.00
2019-06-08T09:38:28.687Z,17.93
2019-06-08T09:39:28.652Z,18.02
2019-06-08T09:40:29.038Z,18.25
2019-06-08T09:41:30.808Z,18.12
2019-06-08T09:42:28.468Z,18.29
2019-06-08T09:43:28.773Z,18.55
2019-06-08T09:44:28.103Z,18.58
2019-06-08T09:45:28.783Z,18.36
2019-06-08T09:46:27.818Z,18.21
2019-06-08T09:47:28.032Z,18.27
2019-06-08T09:48:28.581Z,18.62
2019-06-08T09:49:27.975Z,19.06
2019-06-08T09:50:27.804Z,18.81
2019-06-08T09:51:28.484Z,18.94
2019-06-08T09:52:28.183Z,18.92
2019-06-08T09:53:34.169Z,18.98
2019-06-08T09:54:28.268Z,19.25
2019-06-08T09:55:28.703Z,19.54
2019-06-08T09:56:28.285Z,19.37
2019-06-08T09:57:28.396Z,18.91
2019-06-08T09:58:28.943Z,18.80
2019-06-08T09:59:28.430Z,18.98
2019-06-08T10:00:29.280Z,19.40
2019-06-08T10:01:28.452Z,19.48
2019-06-08T10:02:28.375Z,19.55
2019-06-08T10:03:28.161Z,19.56
2019-06-08T10:04:29.128Z,19.84
2019-06-08T10:05:27.627Z,19.81
2019-06-08T10:06:26.301Z,19.74
2019-06-08T10:07:31.035Z,19.77
2019-06-08T10:08:28.303Z,19.94
2019-06-08T10:09:28.388Z,20.13
2019-06-08T10:10:26.234Z,20.23
2019-06-08T10:11:28.101Z,20.02
2019-06-08T10:12:28.064Z,19.78
2019-06-08T10:13:28.032Z,19.68
2019-06-08T10:14:28.082Z,19.94
2019-06-08T10:15:27.821Z,19.77
2019-06-08T10:16:28.025Z,19.36
2019-06-08T10:17:27.900Z,19.51
2019-06-08T10:18:28.356Z,19.62
2019-06-08T10:19:26.112Z,19.95
2019-06-08T10:20:28.868Z,19.86
2019-06-08T10:21:28.271Z,19.96
2019-06-08T10:22:28.095Z,20.10
2019-06-08T10:23:33.427Z,20.06
2019-06-08T10:24:26.044Z,19.84
2019-06-08T10:25:28.691Z,19.83
2019-06-08T10:26:28.048Z,19.73
2019-06-08T10:27:28.229Z,19.46
2019-06-08T10:28:28.810Z,19.50
2019-06-08T10:29:25.989Z,19.77
2019-06-08T10:30:28.391Z,19.55
2019-06-08T10:31:36.553Z,19.22
2019-06-08T10:32:28.045Z,19.19
2019-06-08T10:33:28.052Z,19.19
2019-06-08T10:34:27.297Z,19.31
2019-06-08T10:35:28.207Z,19.25
2019-06-08T10:36:28.157Z,19.26
2019-06-08T10:37:28.208Z,19.41
2019-06-08T10:38:25.855Z,19.96
2019-06-08T10:39:28.240Z,20.35
2019-06-08T10:40:28.408Z,20.47
2019-06-08T10:41:27.805Z,20.42
2019-06-08T10:42:25.801Z,20.06
2019-06-08T10:43:28.729Z,20.02
2019-06-08T10:44:28.245Z,19.26
2019-06-08T10:45:28.454Z,18.95
2019-06-08T10:46:25.754Z,19.25
2019-06-08T10:47:29.529Z,19.55
2019-06-08T10:48:27.632Z,19.44
2019-06-08T10:49:28.415Z,19.26
2019-06-08T10:50:25.702Z,19.16
2019-06-08T10:51:25.673Z,19.00
2019-06-08T10:52:28.026Z,19.08
2019-06-08T10:53:25.682Z,18.85
2019-06-08T10:54:27.593Z,19.00
2019-06-08T10:55:27.948Z,19.73
2019-06-08T10:56:30.897Z,19.19
2019-06-08T10:57:27.899Z,19.18
2019-06-08T10:58:25.701Z,19.48
2019-06-08T10:59:25.576Z,19.56
2019-06-08T11:00:27.969Z,19.84
2019-06-08T11:01:28.134Z,19.86
2019-06-08T11:02:28.005Z,19.59
2019-06-08T11:03:25.505Z,19.31
2019-06-08T11:04:25.535Z,19.62
2019-06-08T11:05:27.912Z,19.29
2019-06-08T11:06:25.472Z,18.92
2019-06-08T11:07:27.841Z,18.90
2019-06-08T11:08:27.523Z,18.90
2019-06-08T11:09:28.334Z,19.11
2019-06-08T11:10:25.405Z,19.18
2019-06-08T11:11:25.408Z,19.14
2019-06-08T11:12:28.168Z,19.16
2019-06-08T11:13:27.854Z,19.18
2019-06-08T11:14:25.365Z,19.25
2019-06-08T11:15:29.411Z,19.73
2019-06-08T11:16:25.334Z,19.44
2019-06-08T11:17:27.782Z,19.31
2019-06-08T11:18:25.293Z,19.10
2019-06-08T11:19:26.522Z,19.04
2019-06-08T11:20:27.543Z,19.16
2019-06-08T11:21:25.261Z,19.11
2019-06-08T11:22:27.755Z,19.91
2019-06-08T11:23:25.218Z,20.98
2019-06-08T11:24:25.495Z,21.40
2019-06-08T11:25:25.200Z,21.01
2019-06-08T11:26:25.308Z,21.68
2019-06-08T11:27:25.163Z,20.92
2019-06-08T11:28:25.162Z,20.35
2019-06-08T11:29:27.549Z,20.01
2019-06-08T11:30:28.062Z,19.80
2019-06-08T11:31:28.172Z,19.95
2019-06-08T11:32:25.094Z,20.02
2019-06-08T11:33:25.094Z,19.83
2019-06-08T11:34:25.065Z,19.78
2019-06-08T11:35:25.055Z,19.88
2019-06-08T11:36:25.054Z,19.66
2019-06-08T11:37:25.023Z,20.43
2019-06-08T11:38:25.022Z,19.91
2019-06-08T11:39:25.010Z,19.96
2019-06-08T11:40:27.695Z,20.13
2019-06-08T11:41:27.681Z,20.57
2019-06-08T11:42:28.355Z,20.72
2019-06-08T11:43:24.941Z,21.61
2019-06-08T11:44:27.435Z,22.03
2019-06-08T11:45:24.914Z,21.98
2019-06-08T11:46:24.906Z,21.69
2019-06-08T11:47:24.902Z,21.21
2019-06-08T11:48:24.874Z,20.97
2019-06-08T11:49:24.867Z,20.73
2019-06-08T11:50:24.864Z,21.16
2019-06-08T11:51:24.890Z,21.13
2019-06-08T11:52:25.868Z,20.39
2019-06-08T11:53:24.813Z,20.06
2019-06-08T11:54:36.180Z,19.66
2019-06-08T11:55:24.790Z,19.56
2019-06-08T11:56:24.769Z,19.19
2019-06-08T11:57:24.765Z,19.33
2019-06-08T11:58:24.741Z,19.33
2019-06-08T11:59:24.726Z,19.32
2019-06-08T12:00:28.356Z,19.51
2019-06-08T12:01:24.698Z,19.77
2019-06-08T12:02:24.698Z,20.08
2019-06-08T12:03:24.675Z,20.31
2019-06-08T12:04:24.662Z,20.26
2019-06-08T12:05:24.643Z,21.28
2019-06-08T12:06:24.629Z,21.75
2019-06-08T12:07:24.639Z,22.31
2019-06-08T12:08:24.604Z,22.31
2019-06-08T12:09:24.587Z,22.06
2019-06-08T12:10:24.575Z,20.73
2019-06-08T12:11:24.563Z,20.36
2019-06-08T12:12:24.561Z,20.73
2019-06-08T12:13:24.539Z,20.47
2019-06-08T12:14:24.522Z,20.18
2019-06-08T12:15:24.507Z,20.21
2019-06-08T12:16:24.493Z,20.39
2019-06-08T12:17:24.504Z,20.38
2019-06-08T12:18:24.466Z,20.13
2019-06-08T12:19:24.467Z,20.58
2019-06-08T12:20:24.547Z,21.19
2019-06-08T12:21:24.427Z,20.98
2019-06-08T12:22:24.414Z,21.90
2019-06-08T12:23:24.412Z,22.67
2019-06-08T12:24:24.387Z,22.80
2019-06-08T12:25:24.373Z,22.57
2019-06-08T12:26:24.362Z,21.98
2019-06-08T12:27:33.204Z,21.38
2019-06-08T12:28:24.346Z,21.12
2019-06-08T12:29:24.323Z,21.25
2019-06-08T12:30:26.209Z,21.90
2019-06-08T12:31:24.295Z,22.37
2019-06-08T12:32:24.279Z,23.22
2019-06-08T12:33:24.291Z,22.24
2019-06-08T12:34:24.256Z,21.31
2019-06-08T12:35:24.241Z,20.99
2019-06-08T12:36:24.227Z,21.88
2019-06-08T12:37:24.215Z,21.07
2019-06-08T12:38:24.220Z,20.64
2019-06-08T12:39:24.188Z,20.41
2019-06-08T12:40:24.178Z,21.50
2019-06-08T12:41:24.163Z,22.31
2019-06-08T12:42:25.007Z,21.99
2019-06-08T12:43:24.164Z,21.94
2019-06-08T12:44:26.192Z,22.42
2019-06-08T12:45:24.110Z,22.30
2019-06-08T12:46:24.102Z,23.10
2019-06-08T12:47:26.762Z,22.39
2019-06-08T12:48:25.409Z,22.77
2019-06-08T12:49:24.061Z,22.88
2019-06-08T12:50:24.046Z,22.35
2019-06-08T12:51:24.036Z,21.40
2019-06-08T12:52:24.020Z,21.24
2019-06-08T12:53:24.022Z,21.88
2019-06-08T12:54:23.996Z,22.10
2019-06-08T12:55:25.397Z,21.84
2019-06-08T12:56:24.345Z,21.61
2019-06-08T12:57:23.958Z,21.09
2019-06-08T12:58:23.959Z,22.05
2019-06-08T12:59:23.933Z,23.01
2019-06-08T13:00:23.920Z,24.25
2019-06-08T13:01:23.910Z,22.95
2019-06-08T13:02:24.239Z,22.25
2019-06-08T13:03:23.920Z,21.75
2019-06-08T13:04:24.064Z,21.54
2019-06-08T13:05:23.863Z,21.62
2019-06-08T13:06:23.871Z,20.77
2019-06-08T13:07:23.832Z,20.17
2019-06-08T13:08:23.870Z,19.99
2019-06-08T13:09:23.840Z,19.91
2019-06-08T13:10:24.342Z,19.94
2019-06-08T13:11:23.787Z,20.10
2019-06-08T13:12:23.778Z,20.24
2019-06-08T13:13:24.632Z,20.23
2019-06-08T13:14:23.760Z,20.29
2019-06-08T13:15:23.734Z,20.47
2019-06-08T13:16:24.528Z,20.48
2019-06-08T13:17:23.705Z,20.59
2019-06-08T13:18:23.695Z,20.58
2019-06-08T13:19:23.695Z,20.32
2019-06-08T13:20:23.667Z,20.58
2019-06-08T13:21:34.036Z,20.70
2019-06-08T13:22:27.819Z,20.72
2019-06-08T13:23:23.628Z,20.69
2019-06-08T13:24:23.628Z,20.73
2019-06-08T13:25:36.349Z,20.84
2019-06-08T13:26:27.969Z,20.74
2019-06-08T13:27:23.576Z,21.54
2019-06-08T13:28:25.422Z,21.21
2019-06-08T13:29:23.564Z,21.29
2019-06-08T13:30:26.169Z,21.12
2019-06-08T13:31:24.722Z,21.37
2019-06-08T13:32:23.524Z,20.99
2019-06-08T13:33:23.499Z,21.21
2019-06-08T13:34:24.454Z,21.58
2019-06-08T13:35:23.493Z,21.52
2019-06-08T13:36:26.433Z,21.24
2019-06-08T13:37:23.449Z,21.29
2019-06-08T13:38:23.443Z,21.07
2019-06-08T13:39:23.442Z,21.40
2019-06-08T13:40:23.757Z,21.01
2019-06-08T13:41:26.023Z,20.76
2019-06-08T13:42:23.385Z,21.98
2019-06-08T13:43:23.372Z,21.53
2019-06-08T13:44:23.376Z,20.95
2019-06-08T13:45:23.568Z,21.09
2019-06-08T13:46:23.714Z,21.92
2019-06-08T13:47:23.324Z,22.03
2019-06-08T13:48:23.384Z,21.29
2019-06-08T13:49:26.820Z,20.92
2019-06-08T13:50:24.006Z,20.79
2019-06-08T13:51:24.220Z,20.94
2019-06-08T13:52:24.161Z,21.43
2019-06-08T13:53:28.335Z,21.27
2019-06-08T13:54:24.368Z,23.00
2019-06-08T13:55:42.307Z,23.23
2019-06-08T13:56:24.054Z,22.76
2019-06-08T13:57:24.958Z,22.30
2019-06-08T13:58:32.164Z,21.27
2019-06-08T13:59:27.703Z,21.88
2019-06-08T14:00:23.796Z,23.50
2019-06-08T14:01:23.765Z,23.20
2019-06-08T14:02:28.294Z,22.51
2019-06-08T14:03:24.389Z,22.30
2019-06-08T14:04:23.770Z,22.73
2019-06-08T14:05:27.739Z,21.42
2019-06-08T14:06:23.729Z,21.14
2019-06-08T14:07:27.409Z,21.06
2019-06-08T14:08:24.424Z,20.77
2019-06-08T14:09:23.333Z,20.61
2019-06-08T14:10:24.493Z,20.57
2019-06-08T14:11:24.081Z,20.17
2019-06-08T14:12:24.372Z,20.26
2019-06-08T14:13:27.794Z,20.08
2019-06-08T14:14:24.199Z,20.72
2019-06-08T14:15:23.405Z,21.12
2019-06-08T14:16:24.811Z,20.92
2019-06-08T14:17:25.027Z,21.42
2019-06-08T14:18:27.555Z,21.38
2019-06-08T14:19:24.462Z,21.42
2019-06-08T14:20:24.406Z,21.72
2019-06-08T14:21:32.850Z,22.39
2019-06-08T14:22:24.276Z,21.74
2019-06-08T14:23:24.219Z,21.71
2019-06-08T14:24:28.051Z,21.68
2019-06-08T14:25:24.392Z,21.52
2019-06-08T14:26:23.245Z,21.52
2019-06-08T14:27:23.522Z,21.90
2019-06-08T14:28:23.300Z,22.57
2019-06-08T14:29:24.113Z,23.09
2019-06-08T14:30:23.795Z,22.45
2019-06-08T14:31:23.956Z,22.20
2019-06-08T14:32:23.826Z,23.58
2019-06-08T14:33:26.918Z,23.87
2019-06-08T14:34:23.687Z,24.32
2019-06-08T14:35:24.218Z,24.08
2019-06-08T14:36:24.066Z,24.00
2019-06-08T14:37:22.912Z,24.58
2019-06-08T14:38:27.959Z,24.02
2019-06-08T14:39:23.120Z,24.03
2019-06-08T14:40:23.454Z,24.34
2019-06-08T14:41:22.814Z,23.83
2019-06-08T14:42:27.710Z,23.61
2019-06-08T14:43:23.052Z,22.62
2019-06-08T14:44:24.012Z,21.38
2019-06-08T14:45:22.800Z,20.42
2019-06-08T14:46:24.294Z,20.38
2019-06-08T14:47:22.796Z,20.42
2019-06-08T14:48:27.058Z,20.28
2019-06-08T14:49:25.060Z,20.18
2019-06-08T14:50:22.940Z,20.05
2019-06-08T14:51:22.626Z,20.10
2019-06-08T14:52:24.974Z,19.86
2019-06-08T14:53:23.004Z,19.88
2019-06-08T14:54:26.426Z,19.86
2019-06-08T14:55:23.285Z,19.78
2019-06-08T14:56:22.842Z,19.84
2019-06-08T14:57:23.380Z,19.99
2019-06-08T14:58:24.001Z,20.06
2019-06-08T14:59:23.747Z,20.13
2019-06-08T15:00:23.033Z,19.88
2019-06-08T15:01:24.109Z,19.77
2019-06-08T15:02:23.505Z,19.84
2019-06-08T15:03:23.109Z,20.36
2019-06-08T15:04:23.781Z,20.70
2019-06-08T15:05:23.309Z,20.36
2019-06-08T15:06:23.296Z,21.65
2019-06-08T15:07:23.860Z,22.47
2019-06-08T15:08:23.594Z,21.38
2019-06-08T15:09:23.470Z,21.58
2019-06-08T15:10:23.349Z,22.46
2019-06-08T15:11:23.357Z,23.75
2019-06-08T15:12:23.295Z,23.50
2019-06-08T15:13:23.441Z,23.01
2019-06-08T15:14:23.546Z,23.94
2019-06-08T15:15:23.436Z,24.77
2019-06-08T15:16:23.564Z,24.68
2019-06-08T15:17:22.315Z,25.43
2019-06-08T15:18:22.296Z,24.68
2019-06-08T15:19:22.287Z,24.03
2019-06-08T15:20:22.281Z,24.32
2019-06-08T15:21:24.135Z,24.22
2019-06-08T15:22:22.314Z,25.17
2019-06-08T15:23:23.435Z,26.20
2019-06-08T15:24:22.602Z,26.62
2019-06-08T15:25:22.545Z,25.70
2019-06-08T15:26:29.980Z,24.91
2019-06-08T15:27:23.612Z,23.85
2019-06-08T15:28:22.602Z,23.15
2019-06-08T15:29:22.844Z,22.14
2019-06-08T15:30:23.058Z,22.14
2019-06-08T15:31:23.053Z,21.61
2019-06-08T15:32:22.945Z,21.52
2019-06-08T15:33:23.272Z,21.29
2019-06-08T15:34:23.163Z,21.27
2019-06-08T15:35:23.046Z,21.03
2019-06-08T15:36:23.443Z,20.89
2019-06-08T15:37:23.134Z,20.54
2019-06-08T15:38:22.799Z,20.47
2019-06-08T15:39:23.382Z,20.32
2019-06-08T15:40:22.123Z,20.38
2019-06-08T15:41:24.256Z,20.39
2019-06-08T15:42:22.099Z,20.35
2019-06-08T15:43:22.072Z,20.38
2019-06-08T15:44:24.245Z,20.16
2019-06-08T15:45:22.133Z,20.03
2019-06-08T15:46:22.111Z,19.95
2019-06-08T15:47:22.224Z,19.99
2019-06-08T15:48:22.175Z,19.94
2019-06-08T15:49:22.391Z,19.77
2019-06-08T15:50:22.295Z,19.83
2019-06-08T15:51:22.146Z,19.81
2019-06-08T15:52:22.346Z,19.78
2019-06-08T15:53:22.333Z,19.69
2019-06-08T15:54:22.553Z,19.68
2019-06-08T15:55:22.985Z,19.71
2019-06-08T15:56:36.434Z,19.68
2019-06-08T15:57:22.985Z,19.62
2019-06-08T15:58:22.834Z,19.68
2019-06-08T15:59:23.152Z,19.68
2019-06-08T16:00:22.972Z,19.71
2019-06-08T16:01:22.944Z,19.84
2019-06-08T16:02:22.985Z,19.88
2019-06-08T16:03:23.113Z,19.88
2019-06-08T16:04:21.808Z,19.94
2019-06-08T16:05:21.792Z,19.98
2019-06-08T16:06:21.805Z,19.96
2019-06-08T16:07:21.770Z,19.87
2019-06-08T16:08:21.765Z,19.95
2019-06-08T16:09:21.748Z,20.10
2019-06-08T16:10:21.729Z,20.11
2019-06-08T16:11:21.709Z,20.18
2019-06-08T16:12:21.696Z,20.10
2019-06-08T16:13:21.693Z,19.91
2019-06-08T16:14:21.667Z,19.98
2019-06-08T16:15:21.654Z,19.91
2019-06-08T16:16:21.640Z,19.84
2019-06-08T16:17:21.627Z,19.81
2019-06-08T16:18:21.626Z,19.76
2019-06-08T16:19:21.596Z,19.84
2019-06-08T16:20:21.584Z,19.86
2019-06-08T16:21:21.568Z,19.87
2019-06-08T16:22:21.572Z,19.80
2019-06-08T16:23:21.555Z,19.71
2019-06-08T16:24:21.528Z,19.77
2019-06-08T16:25:21.511Z,19.69
2019-06-08T16:26:21.502Z,19.74
2019-06-08T16:27:21.484Z,19.71
2019-06-08T16:28:21.488Z,19.65
2019-06-08T16:29:21.456Z,19.66
2019-06-08T16:30:21.442Z,19.56
2019-06-08T16:31:21.428Z,19.62
2019-06-08T16:32:21.419Z,19.56
2019-06-08T16:33:21.395Z,19.62
2019-06-08T16:34:21.400Z,19.73
2019-06-08T16:35:21.389Z,19.69
2019-06-08T16:36:21.356Z,19.76
2019-06-08T16:37:21.341Z,19.78
2019-06-08T16:38:21.327Z,19.77
2019-06-08T16:39:21.323Z,19.74
2019-06-08T16:40:21.297Z,19.84
2019-06-08T16:41:21.283Z,19.91
2019-06-08T16:42:21.269Z,19.95
2019-06-08T16:43:21.255Z,19.88
2019-06-08T16:44:21.252Z,19.80
2019-06-08T16:45:21.223Z,19.77
2019-06-08T16:46:21.219Z,19.68
2019-06-08T16:47:21.195Z,19.66
2019-06-08T16:48:21.199Z,19.51
2019-06-08T16:49:21.192Z,19.58
2019-06-08T16:50:24.874Z,19.55
2019-06-08T16:51:21.137Z,19.51
2019-06-08T16:52:21.122Z,19.62
2019-06-08T16:53:21.107Z,19.46
2019-06-08T16:54:21.105Z,19.68
2019-06-08T16:55:21.143Z,20.10
2019-06-08T16:56:21.064Z,20.20
2019-06-08T16:57:21.050Z,20.01
2019-06-08T16:58:21.034Z,19.96
2019-06-08T16:59:21.033Z,19.91
2019-06-08T17:00:40.223Z,19.92
2019-06-08T17:01:20.993Z,19.76
2019-06-08T17:02:20.990Z,19.88
2019-06-08T17:03:20.962Z,19.86
2019-06-08T17:04:20.967Z,19.81
2019-06-08T17:05:20.933Z,19.71
2019-06-08T17:06:20.925Z,19.83
2019-06-08T17:07:20.902Z,19.69
2019-06-08T17:08:20.891Z,19.47
2019-06-08T17:09:20.874Z,19.47
2019-06-08T17:10:20.875Z,19.55
2019-06-08T17:11:20.846Z,19.41
2019-06-08T17:12:20.833Z,19.32
2019-06-08T17:13:20.817Z,19.25
2019-06-08T17:14:20.838Z,19.23
2019-06-08T17:15:20.803Z,19.14
2019-06-08T17:16:20.940Z,19.11
2019-06-08T17:17:20.768Z,19.14
2019-06-08T17:18:20.752Z,19.22
2019-06-08T17:19:20.729Z,19.13
2019-06-08T17:20:20.726Z,19.10
2019-06-08T17:21:20.698Z,19.07
2019-06-08T17:22:20.923Z,19.07
2019-06-08T17:23:20.669Z,18.99
2019-06-08T17:24:20.657Z,19.00
2019-06-08T17:25:20.663Z,18.98
2019-06-08T17:26:20.659Z,18.94
2019-06-08T17:27:26.718Z,19.00
2019-06-08T17:28:20.601Z,18.98
2019-06-08T17:29:20.576Z,19.00
2019-06-08T17:30:20.572Z,18.91
2019-06-08T17:31:20.555Z,18.91
2019-06-08T17:32:20.534Z,18.88
2019-06-08T17:33:20.518Z,18.82
2019-06-08T17:34:20.874Z,18.73
2019-06-08T17:35:20.499Z,18.84
2019-06-08T17:36:20.472Z,18.78
2019-06-08T17:37:20.457Z,18.78
2019-06-08T17:38:20.438Z,18.87
2019-06-08T17:39:20.425Z,18.76
2019-06-08T17:40:20.428Z,18.72
2019-06-08T17:41:20.394Z,18.69
2019-06-08T17:42:20.379Z,18.65
2019-06-08T17:43:20.362Z,18.62
2019-06-08T17:44:20.347Z,18.50
2019-06-08T17:45:20.341Z,18.48
2019-06-08T17:46:20.329Z,18.47
2019-06-08T17:47:23.871Z,18.47
2019-06-08T17:48:20.287Z,18.47
2019-06-08T17:49:20.271Z,18.39
2019-06-08T17:50:20.255Z,18.45
2019-06-08T17:51:20.253Z,18.36
2019-06-08T17:52:20.222Z,18.35
2019-06-08T17:53:20.206Z,18.36
2019-06-08T17:54:20.190Z,18.41
2019-06-08T17:55:20.176Z,18.32
2019-06-08T17:56:20.173Z,18.29